Latest Coastal Weather Observations for Swan Island

IDT60701

Issued at 1:11 am EST Tuesday 4 August 2015 (issued every 10 minutes, with the page automatically refreshed every 10 minutes)

About coastal observations | Map of coastal stations | Coastal observations for TAS | Marine services | Other Formats
Station Details ID: 092123 Name: SWAN ISLAND Lat: -40.73 Lon: 148.12 Height: 15.0 m
Data from the previous 72 hours. | See also: Recent months at Swan Island
Date/Time
EST
Temp

°C
Wind Pressure Rain
since 9am
mm
Weather Cloud Vis
km
Sea
Height
m
Swell
Dir
 
Speed
knots
Gust
knots
hPa Trend Height
m
Period
s
Dir
04/01:00am 4.5 WSW 8 11 1018.0 - 0.0 - - - - - - -
04/12:30am 4.5 WSW 6 8 1018.3 - 0.0 - - - - - - -
04/12:00am 5.0 WSW 8 13 1018.3 - 0.0 - - - - - - -
 
Date/Time
EST
Temp

°C
Wind Pressure Rain
since 9am
mm
Weather Cloud Vis
km
Sea
Height
m
Swell
Dir
 
Speed
knots
Gust
knots
hPa Trend Height
m
Period
s
Dir
03/11:30pm 5.3 WSW 8 12 1018.3 - 0.0 - - - - - - -
03/11:00pm 5.3 WSW 8 13 1018.0 - 0.0 - - - - - - -
03/10:30pm 5.6 WSW 10 14 1017.9 - 0.0 - - - - - - -
03/10:00pm 5.6 WSW 8 12 1018.0 - 0.0 - - - - - - -
03/09:30pm 6.0 WSW 10 16 1017.7 - 0.0 - - - - - - -
03/09:00pm 6.0 WSW 9 15 1017.2 - 0.0 - - - - - - -
03/08:30pm 6.1 WSW 11 18 1016.6 - 0.0 - - - - - - -
03/08:00pm 6.4 WSW 11 17 1016.2 - 0.0 - - - - - - -
03/07:30pm 6.5 WSW 10 18 1015.9 - 0.0 - - - - - - -
03/07:00pm 6.9 W 15 24 1014.6 - 0.0 - - - - - - -
03/06:30pm 6.9 W 16 26 1013.4 - 0.0 - - - - - - -
03/06:26pm 6.9 W 16 26 1013.4 - 0.0 - - - - - - -
03/06:00pm 7.0 W 15 24 1013.1 - 0.0 - - - - - - -
03/05:30pm 7.0 WSW 14 23 1012.4 - 0.0 - - - - - - -
03/05:01pm 7.2 WSW 15 25 1011.8 - 0.0 - - - - - - -
03/05:00pm 7.2 WSW 16 25 1011.7 - 0.0 - - - - - - -
03/04:30pm 7.7 W 20 31 1010.6 - 0.0 - - - - - - -
03/04:00pm 7.8 W 25 35 1009.8 - 0.0 - - - - - - -
03/03:33pm 7.7 W 23 33 1009.8 - 0.0 - - - - - - -
03/03:30pm 7.7 W 24 33 1009.7 - 0.0 - - - - - - -
03/03:00pm 7.8 W 24 35 1009.0 - 0.0 - - - - - - -
03/02:30pm 7.6 W 26 39 1008.2 - 0.0 - - - - - - -
03/02:00pm 8.1 W 26 39 1008.0 - 0.0 - - - - - - -
03/01:30pm 7.9 W 26 37 1007.5 - 0.0 - - - - - - -
03/01:00pm 7.8 W 28 40 1007.2 - 0.0 - - - - - - -
03/12:32pm 7.5 W 29 39 1006.5 - 0.0 - - - - - - -
03/12:30pm 7.5 W 28 38 1006.5 - 0.0 - - - - - - -
03/12:00pm 7.3 W 29 41 1006.6 - 0.0 - - - - - - -
03/11:30am 7.6 W 25 36 1006.8 - 0.0 - - - - - - -
03/11:00am 7.2 W 23 33 1007.0 - 0.0 - - - - - - -
03/10:30am 7.2 W 20 31 1006.6 - 0.0 - - - - - - -
03/10:00am 6.7 W 17 27 1006.0 - 0.0 - - - - - - -
03/09:30am 6.0 WSW 17 28 1005.8 - 0.0 - - - - - - -
03/09:00am 6.1 W 22 34 1005.1 - 10.0 - - - - - - -
03/08:36am 5.9 WSW 17 28 1004.6 - 10.0 - - - - - - -
03/08:30am 5.6 WSW 16 24 1004.5 - 10.0 - - - - - - -
03/08:11am 5.8 WSW 16 27 1004.3 - 10.0 - - - - - - -
03/08:00am 5.6 W 17 25 1003.9 - 10.0 - - - - - - -
03/07:30am 5.8 W 21 36 1003.1 - 10.0 - - - - - - -
03/07:00am 5.5 WSW 17 28 1002.7 - 10.0 - - - - - - -
03/06:30am 6.2 WSW 17 27 1001.7 - 10.0 - - - - - - -
03/06:07am 6.1 W 23 34 1001.0 - 10.0 - - - - - - -
03/06:00am 6.4 W 24 33 1001.0 - 10.0 - - - - - - -
03/05:41am 6.5 W 26 37 1000.8 - 10.0 - - - - - - -
03/05:30am 6.4 W 27 35 1000.2 - 10.0 - - - - - - -
03/05:03am 6.8 W 24 35 999.9 - 10.0 - - - - - - -
03/05:00am 6.8 W 26 35 999.9 - 10.0 - - - - - - -
03/04:30am 7.0 W 27 39 999.6 - 10.0 - - - - - - -
03/04:20am 7.2 W 27 38 999.4 - 10.0 - - - - - - -
03/04:00am 7.0 W 24 33 998.8 - 10.0 - - - - - - -
03/03:33am 7.0 W 28 39 998.5 - 10.0 - - - - - - -
03/03:30am 7.2 W 30 39 998.4 - 10.0 - - - - - - -
03/03:00am 7.2 W 27 39 998.1 - 10.0 - - - - - - -
03/02:32am 7.0 W 25 37 998.8 - 10.0 - - - - - - -
03/02:30am 7.4 W 25 33 998.9 - 10.0 - - - - - - -
03/02:08am 7.4 W 30 42 998.7 - 10.0 - - - - - - -
03/02:04am 7.2 W 26 42 998.4 - 10.0 - - - - - - -
03/02:00am 7.4 W 24 37 998.6 - 10.0 - - - - - - -
03/01:59am 7.5 W 24 37 998.7 - 10.0 - - - - - - -
03/01:58am 7.5 W 25 40 998.7 - 10.0 - - - - - - -
03/01:48am 7.5 W 27 41 998.4 - 9.8 - - - - - - -
03/01:34am 7.2 W 21 32 998.5 - 9.8 - - - - - - -
03/01:30am 7.1 W 22 32 998.5 - 9.8 - - - - - - -
03/01:00am 8.2 WNW 21 32 998.3 - 8.8 - - - - - - -
03/12:30am 8.1 WNW 26 38 999.0 - 8.6 - - - - - - -
03/12:00am 7.0 WNW 25 39 999.4 - 8.6 Rain - - - - - -
 
Date/Time
EST
Temp

°C
Wind Pressure Rain
since 9am
mm
Weather Cloud Vis
km
Sea
Height
m
Swell
Dir
 
Speed
knots
Gust
knots
hPa Trend Height
m
Period
s
Dir
02/11:32pm 7.5 WNW 25 36 999.7 - 8.2 - - - - - - -
02/11:30pm 7.3 WNW 26 36 999.6 - 8.2 - - - - - - -
02/11:06pm 7.1 WNW 23 45 1000.1 - 7.8 - - - - - - -
02/11:00pm 6.3 W 27 52 1000.5 - 7.4 - - - - - - -
02/10:56pm 5.7 WNW 30 52 1000.5 - 7.0 - - - - - - -
02/10:51pm 8.2 WNW 28 52 1000.3 - 5.8 - - - - - - -
02/10:30pm 9.7 NW 26 37 999.9 - 5.8 - - - - - - -
02/10:05pm 8.7 WNW 24 35 1000.4 - 5.8 - - - - - - -
02/10:00pm 8.8 WNW 24 33 1000.6 - 5.8 - - - - - - -
02/09:30pm 7.9 WNW 20 33 1001.5 - 5.6 - - - - - - -
02/09:02pm 9.1 WNW 18 28 1001.7 - 5.0 - - - - - - -
02/09:00pm 9.0 WNW 19 28 1001.7 - 5.0 - - - - - - -
02/08:30pm 8.8 WNW 21 32 1002.0 - 5.0 - - - - - - -
02/08:00pm 8.2 WNW 19 32 1002.2 - 5.0 - - - - - - -
02/07:51pm 8.2 WNW 17 28 1002.2 - 5.0 - - - - - - -
02/07:30pm 7.6 W 16 23 1002.1 - 5.0 - - - - - - -
02/07:02pm 8.2 WNW 20 33 1001.8 - 5.0 - - - - - - -
02/07:00pm 8.1 WNW 19 28 1001.9 - 5.0 - - - - - - -
02/06:30pm 7.2 W 18 26 1001.9 - 5.0 - - - - - - -
02/06:03pm 9.0 WNW 24 34 1001.2 - 5.0 - - - - - - -
02/06:00pm 9.1 WNW 23 33 1001.1 - 5.0 - - - - - - -
02/05:30pm 8.9 W 23 35 1000.8 - 5.0 - - - - - - -
02/05:00pm 8.6 W 23 38 1000.7 - 5.0 - - - - - - -
02/04:30pm 8.8 WNW 20 37 1000.1 - 5.0 - - - - - - -
02/04:15pm 8.6 W 23 34 1000.1 - 5.0 - - - - - - -
02/04:00pm 8.1 W 26 35 1000.1 - 5.0 - - - - - - -
02/03:52pm 8.7 W 28 39 999.9 - 5.0 - - - - - - -
02/03:31pm 9.2 WNW 29 40 998.9 - 4.8 - - - - - - -
02/03:30pm 9.2 WNW 29 39 998.9 - 4.8 - - - - - - -
02/03:17pm 8.9 NW 25 39 999.2 - 4.8 - - - - - - -
02/03:11pm 9.0 NW 31 45 998.9 - 4.8 - - - - - - -
02/03:00pm 9.7 NW 37 58 998.7 - 3.6 Rain - - - - - -
02/02:30pm 10.4 NW 34 46 998.7 - 3.4 - - - - - - -
02/02:00pm 10.5 NW 30 40 999.2 - 3.4 - - - - - - -
02/01:30pm 10.7 NW 29 40 999.8 - 3.4 - - - - - - -
02/01:01pm 10.4 NW 28 38 1000.7 - 3.4 - - - - - - -
02/01:00pm 10.7 NW 28 36 1000.7 - 3.4 - - - - - - -
02/12:30pm 10.2 NW 29 39 1001.5 - 3.4 - - - - - - -
02/12:02pm 10.0 NW 23 34 1002.3 - 3.2 - - - - - - -
02/12:00pm 9.7 NW 24 34 1002.4 - 3.2 Rain - - - - - -
02/11:44am 9.6 NW 24 37 1002.7 - 2.6 - - - - - - -
02/11:30am 9.7 NW 22 30 1003.3 - 2.4 - - - - - - -
02/11:00am 9.1 WNW 20 29 1004.2 - 1.4 - - - - - - -
02/10:39am 10.2 NW 25 38 1004.3 - 1.0 - - - - - - -
02/10:30am 11.0 NW 24 31 1004.3 - 0.6 - - - - - - -
02/10:00am 9.7 NW 22 29 1004.8 - 0.6 - - - - - - -
02/09:35am 10.0 NW 23 34 1005.2 - 0.0 - - - - - - -
02/09:30am 10.1 NW 22 29 1005.3 - 0.0 - - - - - - -
02/09:08am 9.5 NW 23 33 1005.5 - 0.0 - - - - - - -
02/09:00am 9.4 NW 24 31 1005.8 - 0.6 Rain - - - - - -
02/08:38am 9.4 NW 24 34 1005.9 - 0.2 - - - - - - -
02/08:30am 9.8 NW 23 32 1006.0 - 0.2 - - - - - - -
02/08:12am 10.1 NW 22 32 1006.1 - 0.2 - - - - - - -
02/08:00am 10.1 NW 23 31 1006.1 - 0.2 - - - - - - -
02/07:54am 10.2 NW 23 34 1006.2 - 0.2 - - - - - - -
02/07:30am 9.7 NW 21 29 1006.3 - 0.2 - - - - - - -
02/07:00am 9.9 NW 22 30 1006.3 - 0.2 - - - - - - -
02/06:55am 9.8 NW 20 30 1006.4 - 0.2 - - - - - - -
02/06:30am 10.1 NW 22 29 1006.6 - 0.2 - - - - - - -
02/06:00am 9.9 WNW 22 31 1007.0 - 0.2 - - - - - - -
02/05:30am 9.7 NW 23 32 1007.0 - 0.2 - - - - - - -
02/05:19am 10.1 NW 23 33 1007.1 - 0.2 - - - - - - -
02/05:00am 10.5 WNW 23 31 1007.3 - 0.2 - - - - - - -
02/04:32am 9.8 NW 20 30 1007.5 - 0.2 - - - - - - -
02/04:30am 10.0 NW 20 26 1007.6 - 0.2 - - - - - - -
02/04:00am 10.1 WNW 21 29 1008.1 - 0.2 - - - - - - -
02/03:30am 9.8 NW 23 31 1008.2 - 0.2 - - - - - - -
02/03:00am 9.8 WNW 18 26 1008.9 - 0.2 - - - - - - -
02/02:30am 9.4 WNW 18 27 1009.2 - 0.2 - - - - - - -
02/02:20am 9.1 WNW 17 27 1009.3 - 0.2 - - - - - - -
02/02:00am 9.5 WNW 16 24 1009.5 - 0.2 - - - - - - -
02/01:32am 9.8 WNW 21 31 1009.7 - 0.2 - - - - - - -
02/01:30am 9.9 WNW 20 27 1009.7 - 0.2 - - - - - - -
02/01:00am 10.0 WNW 21 30 1009.9 - 0.2 - - - - - - -
02/12:30am 9.4 WNW 19 29 1010.3 - 0.2 - - - - - - -
02/12:12am 9.5 WNW 18 28 1010.4 - 0.2 - - - - - - -
02/12:00am 9.1 WNW 17 25 1010.5 - 0.2 Recent precip. - - - - - -
 
Date/Time
EST
Temp

°C
Wind Pressure Rain
since 9am
mm
Weather Cloud Vis
km
Sea
Height
m
Swell
Dir
 
Speed
knots
Gust
knots
hPa Trend Height
m
Period
s
Dir
01/11:30pm 9.3 WNW 17 27 1010.7 - 0.0 - - - - - - -
01/11:05pm 9.8 WNW 18 32 1010.9 - 0.0 - - - - - - -
01/11:00pm 9.9 WNW 17 23 1010.9 - 0.0 - - - - - - -
01/10:31pm 9.9 W 16 27 1011.2 - 0.0 - - - - - - -
01/10:30pm 9.9 W 15 23 1011.2 - 0.0 - - - - - - -
01/10:00pm 9.7 WNW 17 25 1011.1 - 0.0 - - - - - - -
01/09:30pm 9.7 WNW 19 27 1011.0 - 0.0 - - - - - - -
01/09:00pm 9.5 WNW 16 21 1011.3 - 0.0 - - - - - - -
01/08:30pm 9.4 WNW 17 22 1011.3 - 0.0 - - - - - - -
01/08:09pm 9.1 W 15 26 1011.1 - 0.0 - - - - - - -
01/08:00pm 9.1 W 17 24 1011.0 - 0.0 - - - - - - -
01/07:30pm 9.5 WNW 18 29 1010.3 - 0.0 - - - - - - -
01/07:12pm 9.8 WNW 19 30 1010.3 - 0.0 - - - - - - -
01/07:00pm 9.5 WNW 16 22 1010.5 - 0.0 - - - - - - -
01/06:31pm 9.5 W 20 31 1010.0 - 0.0 - - - - - - -
01/06:30pm 9.5 W 21 31 1009.9 - 0.0 - - - - - - -
01/06:00pm 9.6 W 19 29 1009.5 - 0.0 - - - - - - -
01/05:30pm 9.3 WNW 18 28 1009.3 - 0.0 - - - - - - -
01/05:09pm 9.1 W 17 28 1009.3 - 0.0 - - - - - - -
01/05:00pm 9.1 W 17 27 1009.3 - 0.0 - - - - - - -
01/04:30pm 9.3 WNW 15 22 1009.3 - 0.0 - - - - - - -
01/04:00pm 8.8 W 18 26 1009.3 - 0.0 - - - - - - -
01/03:30pm 8.8 W 18 31 1008.9 - 0.0 - - - - - - -
01/03:00pm 9.7 WNW 18 29 1008.4 - 0.0 - - - - - - -
01/02:41pm 10.2 W 19 29 1008.1 - 0.0 - - - - - - -
01/02:30pm 10.1 W 20 30 1008.1 - 0.0 - - - - - - -
01/02:00pm 10.3 W 22 30 1007.6 - 0.0 - - - - - - -
01/01:36pm 10.3 W 23 34 1007.3 - 0.0 - - - - - - -
01/01:30pm 10.3 W 25 34 1007.2 - 0.0 - - - - - - -
01/01:00pm 10.2 W 25 32 1007.1 - 0.0 - - - - - - -
01/12:30pm 10.1 W 24 33 1006.9 - 0.0 - - - - - - -
01/12:01pm 10.3 W 24 34 1006.7 - 0.0 - - - - - - -
01/12:00pm 10.2 W 25 34 1006.7 - 0.0 - - - - - - -
01/11:30am 10.1 W 25 36 1006.6 - 0.0 - - - - - - -
01/11:07am 9.9 W 26 36 1006.3 - 0.0 - - - - - - -
01/11:00am 9.9 W 25 32 1006.1 - 0.0 - - - - - - -
01/10:52am 10.0 W 21 31 1006.1 - 0.0 - - - - - - -
01/10:30am 9.9 W 24 33 1005.6 - 0.0 - - - - - - -
01/10:13am 9.5 W 25 35 1005.2 - 0.0 - - - - - - -
01/10:00am 9.4 W 26 36 1004.7 - 0.0 - - - - - - -
01/09:30am 9.4 WNW 18 29 1004.1 - 0.0 - - - - - - -
01/09:00am 8.8 W 20 31 1003.6 - 11.8 Recent precip. - - - - - -
01/08:57am 8.6 W 21 31 1003.5 - 11.8 - - - - - - -
01/08:30am 8.3 W 23 32 1003.3 - 11.8 - - - - - - -
01/08:22am 9.1 W 17 32 1003.1 - 11.6 - - - - - - -
01/08:00am 8.4 WNW 22 31 1003.2 - 11.4 - - - - - - -
01/07:53am 9.2 NW 27 38 1003.2 - 9.8 - - - - - - -
01/07:51am 10.7 NNW 28 38 1002.7 - 9.0 - - - - - - -
01/07:30am 10.4 NNW 28 33 1002.1 - 7.6 - - - - - - -
01/07:00am 10.2 NNW 27 33 1002.2 - 5.8 - - - - - - -
01/06:30am 10.2 NNW 27 32 1002.3 - 4.2 - - - - - - -
01/06:00am 10.2 NNW 27 33 1002.4 - 3.2 Rain - - - - - -
01/05:30am 10.4 NNW 27 32 1002.9 - 2.4 - - - - - - -
01/05:00am 10.3 NNW 28 34 1003.0 - 1.6 - - - - - - -
01/04:30am 10.4 NNW 27 32 1003.5 - 1.0 - - - - - - -
01/04:00am 10.4 NNW 25 31 1004.1 - 0.6 - - - - - - -
01/03:30am 10.8 NNW 26 30 1005.2 - 0.4 - - - - - - -
01/03:00am 10.6 NNW 26 31 1006.2 - 0.4 - - - - - - -
01/02:30am 10.7 NNW 27 32 1006.9 - 0.4 - - - - - - -
01/02:00am 10.6 NNW 25 31 1007.5 - 0.4 - - - - - - -
01/01:30am 10.3 NNW 25 29 1008.3 - 0.4 - - - - - - -

Other Formats:

Comma delimited format used in spreadsheet applications
http://www.bom.gov.au/fwo/IDT60701/IDT60701.95985.axf

JavaScript Object Notation format (JSON) in row-major order
http://www.bom.gov.au/fwo/IDT60701/IDT60701.95985.json